WetterOnline ( https://www.wetteronline.ch )

Wetter aktuell Hinte

Aktuelles Wetter: Norderney (16m)

6-stündlich | Neueste Meldungen
Ortszeit Temperatur Wetter
Mo, 17.02. 7:00 7.0° C wolkenlos
Mo, 17.02. 1:00 7.9° C leicht bewölkt
So, 16.02. 19:00 7.6° C leichter Regen
So, 16.02. 13:00 11.2° C leichter Regen
So, 16.02. 7:00 11.4° C bedeckt
So, 16.02. 1:00 10.8° C bedeckt
Sa, 15.02. 19:00 10.4° C bedeckt
Sa, 15.02. 13:00 8.5° C bedeckt
Ortszeit Temperatur Wetter
Mo, 17.02. 12:40 8.8° C wolkig
Mo, 17.02. 12:30 8.5° C wolkig
Mo, 17.02. 12:20 8.5° C wolkig
Mo, 17.02. 12:10 8.4° C bewölkt
Mo, 17.02. 12:00 8.4° C bewölkt
Mo, 17.02. 11:50 8.4° C bewölkt
Mo, 17.02. 11:30 8.1° C leicht bewölkt
Mo, 17.02. 11:00 7.9° C wolkenlos
Mo, 17.02. 10:30 7.6° C wolkenlos
Mo, 17.02. 10:00 7.4° C wolkenlos
Mo, 17.02. 9:30 7.4° C wolkenlos
Ortszeit Relative Feuchte Sichtweite
Mo, 17.02. 7:00 75% 16 km
Mo, 17.02. 1:00 81% 25 km
So, 16.02. 19:00 98% 6 km
So, 16.02. 13:00 95% 4.7 km
So, 16.02. 7:00 82% 35 km
So, 16.02. 1:00 76% 30 km
Sa, 15.02. 19:00 81% 30 km
Sa, 15.02. 13:00 90% 21 km
Ortszeit Relative Feuchte Sichtweite
Mo, 17.02. 12:40 75% -
Mo, 17.02. 12:30 75% 19 km
Mo, 17.02. 12:20 75% -
Mo, 17.02. 12:10 75% -
Mo, 17.02. 12:00 75% 16 km
Mo, 17.02. 11:50 75% -
Mo, 17.02. 11:30 76% 15 km
Mo, 17.02. 11:00 76% 16 km
Mo, 17.02. 10:30 76% 15 km
Mo, 17.02. 10:00 74% 16 km
Mo, 17.02. 9:30 72% 15 km
Ortszeit Niederschlagsmenge Niederschlagsart
Mo, 17.02. 7:00 2 l/m2 in 12 Std. -
Mo, 17.02. 1:00 2 l/m2 in 6 Std. Regen
So, 16.02. 19:00 16 l/m2 in 12 Std. Regen
So, 16.02. 13:00 3 l/m2 in 6 Std. Regen
So, 16.02. 7:00 0.1 l/m2 in 12 Std. Regen
So, 16.02. 1:00 0.1 l/m2 in 6 Std. Regen
Sa, 15.02. 19:00 0.1 l/m2 in 12 Std. Sprühregen
Sa, 15.02. 13:00 0.1 l/m2 in 6 Std. Regen
Ortszeit Niederschlagsmenge Niederschlagsart
Mo, 17.02. 12:40 keine Meldung -
Mo, 17.02. 12:30 0.0 l/m2 in 1 Std. -
Mo, 17.02. 12:20 keine Meldung -
Mo, 17.02. 12:10 keine Meldung -
Mo, 17.02. 12:00 0.0 l/m2 in 1 Std. -
Mo, 17.02. 11:50 keine Meldung -
Mo, 17.02. 11:30 0.0 l/m2 in 1 Std. -
Mo, 17.02. 11:00 0.0 l/m2 in 1 Std. -
Mo, 17.02. 10:30 0.0 l/m2 in 1 Std. -
Mo, 17.02. 10:00 0.0 l/m2 in 1 Std. -
Mo, 17.02. 9:30 0.0 l/m2 in 1 Std. -
Ortszeit Stärke Spitze Richtung
km/h Bft. km/h Grad Sektor
Mo, 17.02. 7:00 43 6 74 230° SW
Mo, 17.02. 1:00 39 6 65 230° SW
So, 16.02. 19:00 30 5 59 260° W
So, 16.02. 13:00 40 6 76 210° SW
So, 16.02. 7:00 47 6 68 190° S
So, 16.02. 1:00 31 5 80 200° S
Sa, 15.02. 19:00 37 5 59 190° S
Sa, 15.02. 13:00 28 4 48 190° S
Ortszeit Stärke Spitze Richtung
km/h Bft. km/h Grad Sektor
Mo, 17.02. 12:40 35 5 - 220° SW
Mo, 17.02. 12:30 36 5 65 220° SW
Mo, 17.02. 12:20 36 5 - 220° SW
Mo, 17.02. 12:10 37 5 - 220° SW
Mo, 17.02. 12:00 43 6 76 220° SW
Mo, 17.02. 11:50 43 6 - 220° SW
Mo, 17.02. 11:30 43 6 65 220° SW
Mo, 17.02. 11:00 41 6 65 220° SW
Mo, 17.02. 10:30 36 5 65 220° SW
Mo, 17.02. 10:00 37 5 63 210° SW
Mo, 17.02. 9:30 40 6 65 220° SW
Ortszeit Untergrenze Bedeckung Gattung
total tief tief mittel hoch
Mo, 17.02. 7:00 - 0/8 0/8 - - -
Mo, 17.02. 1:00 780 m 4/8 4/8 - - -
So, 16.02. 19:00 540 m 8/8 8/8 - - -
So, 16.02. 13:00 450 m 7/8 7/8 - - -
So, 16.02. 7:00 660 m 8/8 8/8 - - -
So, 16.02. 1:00 900 m 8/8 8/8 - - -
Sa, 15.02. 19:00 570 m 8/8 8/8 - - -
Sa, 15.02. 13:00 270 m 8/8 8/8 - - -
Ortszeit Bedeckungsgrad in Achtel und Wolkenuntergrenze
Mo, 17.02. 12:40 2(750m) 6(1110m) 6(1320m)
Mo, 17.02. 12:30 3(780m) 5(960m) 6(1200m)
Mo, 17.02. 12:20 3(780m) 5(960m)
Mo, 17.02. 12:10 6(780m) 7(960m)
Mo, 17.02. 12:00 3(720m) 7(870m)
Mo, 17.02. 11:50 3(720m) 7(870m)
Mo, 17.02. 11:30 2(780m) 5(960m)
Mo, 17.02. 11:00 keine Wolken
Mo, 17.02. 10:30 keine Wolken
Mo, 17.02. 10:00 keine Wolken
Mo, 17.02. 9:30 keine Wolken
Ortszeit Luftdruck NN (hPa) Tendenz (hPa in 3 Std.)
Mo, 17.02. 7:00 1004 + 2,3
Mo, 17.02. 1:00 999 + 2,7
So, 16.02. 19:00 993 + 0,4
So, 16.02. 13:00 994 + 0,1
So, 16.02. 7:00 996 - 3,9
So, 16.02. 1:00 1001 - 1,5
Sa, 15.02. 19:00 1007 - 3,2
Sa, 15.02. 13:00 1013 - 2,2
Ortszeit Luftdruck NN (hPa) Tendenz (hPa in 3 Std.)
Mo, 17.02. 12:40 1006 keine Meldung
Mo, 17.02. 12:30 1006 + 0,9
Mo, 17.02. 12:20 1006 keine Meldung
Mo, 17.02. 12:10 1006 keine Meldung
Mo, 17.02. 12:00 1006 + 1,1
Mo, 17.02. 11:50 1006 keine Meldung
Mo, 17.02. 11:30 1006 + 1,1
Mo, 17.02. 11:00 1006 + 1,3
Mo, 17.02. 10:30 1006 + 1,5
Mo, 17.02. 10:00 1005 + 1,4
Mo, 17.02. 9:30 1005 + 1,1
Ortszeit Schneehöhe (cm)
Mo, 17.02. 7:00 0
Mo, 17.02. 1:00 0
So, 16.02. 19:00 0
So, 16.02. 13:00 0
So, 16.02. 7:00 0
So, 16.02. 1:00 0
Sa, 15.02. 19:00 0
Sa, 15.02. 13:00 0
Ortszeit Schneehöhe (cm)
Mo, 17.02. 12:40 0
Mo, 17.02. 12:30 0
Mo, 17.02. 12:20 0
Mo, 17.02. 12:10 0
Mo, 17.02. 12:00 0
Mo, 17.02. 11:50 0
Mo, 17.02. 11:30 0
Mo, 17.02. 11:00 0
Mo, 17.02. 10:30 0
Mo, 17.02. 10:00 0
Mo, 17.02. 9:30 0
Link zu dieser Seite / Seite empfehlen

Das Wetter in ...